• Join FlightAware (Why Join?)
  • Login
  • US Flag 
08:27PM EDT


 

Airport Tracker/Info


-or-


 

Live Flight TrackerFlight Track Log ✈ MAL8056 ✈ 29-Apr-2013 ✈ CYSB - CYTS

Flight Track Log - Related Links

Times and Time Zones

All times are in EDT time to prevent confusion due to time zone crossing. See the MAL8056 flight status page for this flight to view local times or setup timezone preferences in your user account.

Time Position Orientation Groundspeed Altitude Reporting Facility
EDT Latitude Longitude Course Direction KTS MPH feet Rate Location/Type
02:46PM 46.6000 -80.8167 349° North 90 104 2,400  Level Toronto Center
02:47PM 46.6333 -80.8167 360° North 110 127 3,300 900 Climbing Toronto Center
02:48PM 46.6667 -80.8167 360° North 130 150 4,300 960 Climbing Toronto Center
02:49PM 46.7000 -80.8000 19° North 130 150 5,300 900 Climbing Toronto Center
02:50PM 46.7500 -80.8167 347° North 130 150 6,200 900 Climbing Toronto Center
02:51PM 46.7833 -80.8167 360° North 130 150 7,200 900 Climbing Toronto Center
02:52PM 46.8814 -80.8726 349° North  Level Estimated
02:52PM 46.8167 -80.8500 326° Northwest 130 150 8,000  Level Toronto Center
02:53PM 46.8667 -80.8500 360° North 160 184 8,000  Level Toronto Center
02:54PM 46.9000 -80.8500 360° North 170 196 8,000  Level Toronto Center
02:55PM 46.9500 -80.8833 336° Northwest 170 196 8,000  Level Toronto Center
02:56PM 47.0000 -80.8833 360° North 170 196 8,000  Level Toronto Center
02:57PM 47.0500 -80.9000 347° North 170 196 8,000  Level Toronto Center
02:58PM 47.1000 -80.9000 360° North 170 196 8,000  Level Toronto Center
02:59PM 47.1167 -80.9333 306° West 170 196 8,000  Level Toronto Center
03:00PM 47.1667 -80.9333 360° North 170 196 8,000  Level Toronto Center
03:01PM 47.2167 -80.9500 347° North 170 196 8,000  Level Toronto Center
03:02PM 47.2667 -80.9833 336° Northwest 170 196 8,000  Level Toronto Center
03:03PM 47.3167 -80.9833 360° North 170 196 8,000  Level Toronto Center
03:04PM 47.3667 -81.0167 336° Northwest 170 196 8,000  Level Toronto Center
03:05PM 47.4000 -81.0167 360° North 170 196 8,000  Level Toronto Center
03:06PM 47.4500 -81.0333 347° North 170 196 8,000  Level Toronto Center
03:07PM 47.5000 -81.0333 360° North 170 196 8,000  Level Toronto Center
03:08PM 47.5500 -81.0667 336° Northwest 170 196 8,000  Level Toronto Center
03:09PM 47.6000 -81.0667 360° North 170 196 8,000  Level Toronto Center
03:10PM 47.6333 -81.0833 341° North 170 196 8,000  Level Toronto Center
03:11PM 47.6833 -81.1000 347° North 170 196 8,000  Level Toronto Center
03:12PM 47.7333 -81.1167 347° North 170 196 8,000  Level Toronto Center
03:16PM 47.7841 -81.1320 349° North  Level FlightAware Approximate
03:23PM 48.0843 -81.2234 349° North  Level FlightAware Approximate
03:24PM 48.1271 -81.2368 347° North  Level FlightAware Approximate
03:25PM 48.1699 -81.2511 347° North  Level FlightAware Approximate
03:26PM 48.2126 -81.2653 347° North  Level FlightAware Approximate
03:27PM 48.2559 -81.2745 352° North  Level FlightAware Approximate
03:28PM 48.2993 -81.2832 352° North  Level FlightAware Approximate
03:29PM 48.3427 -81.2919 352° North  Level FlightAware Approximate
03:30PM 48.3860 -81.3011 345° North  Level FlightAware Approximate
03:31PM 48.4283 -81.3180 345° North  Level FlightAware Approximate
03:32PM 48.4707 -81.3341 352° North  Level FlightAware Approximate
03:33PM 48.5141 -81.3428 352° North  Level FlightAware Approximate
03:34PM 48.5563 -81.3563 327° Northwest  Level FlightAware Approximate
03:35PM 48.5667 -81.3667 North  Level FlightAware Approximate
03:36PM 48.5697 -81.3767 North  Level Estimated
03:37PM 48.5697 -81.3767 North  Level Estimated